sensor_id;sensor_type;location;lat;lon;timestamp;pressure;altitude;pressure_sealevel;temperature;humidity
60246;BME280;46107;53.356;-1.524;2023-02-15T00:01:06;99797.65;;;6.42;67.69
60246;BME280;46107;53.356;-1.524;2023-02-15T00:03:34;99796.46;;;6.45;67.83
60246;BME280;46107;53.356;-1.524;2023-02-15T00:06:02;99793.00;;;6.82;65.69
60246;BME280;46107;53.356;-1.524;2023-02-15T00:08:30;99788.26;;;7.11;65.94
60246;BME280;46107;53.356;-1.524;2023-02-15T00:11:05;99777.02;;;7.13;64.46
60246;BME280;46107;53.356;-1.524;2023-02-15T00:13:34;99774.66;;;7.19;65.41
60246;BME280;46107;53.356;-1.524;2023-02-15T00:16:02;99772.39;;;6.83;64.91
60246;BME280;46107;53.356;-1.524;2023-02-15T00:18:31;99767.69;;;6.43;65.66
60246;BME280;46107;53.356;-1.524;2023-02-15T00:21:02;99768.58;;;7.22;62.92
60246;BME280;46107;53.356;-1.524;2023-02-15T00:23:30;99767.15;;;7.06;62.93
60246;BME280;46107;53.356;-1.524;2023-02-15T00:26:07;99764.76;;;6.63;62.81
60246;BME280;46107;53.356;-1.524;2023-02-15T00:28:35;99760.02;;;7.26;61.19
60246;BME280;46107;53.356;-1.524;2023-02-15T00:31:05;99758.10;;;6.95;61.44
60246;BME280;46107;53.356;-1.524;2023-02-15T00:33:33;99751.60;;;5.93;61.60
60246;BME280;46107;53.356;-1.524;2023-02-15T00:36:02;99746.04;;;6.27;61.83
60246;BME280;46107;53.356;-1.524;2023-02-15T00:38:31;99749.61;;;6.08;62.79
60246;BME280;46107;53.356;-1.524;2023-02-15T00:41:02;99748.55;;;5.82;65.00
60246;BME280;46107;53.356;-1.524;2023-02-15T00:43:31;99748.28;;;5.22;66.88
60246;BME280;46107;53.356;-1.524;2023-02-15T00:45:59;99743.26;;;5.72;64.79
60246;BME280;46107;53.356;-1.524;2023-02-15T00:48:27;99741.98;;;6.17;64.11
60246;BME280;46107;53.356;-1.524;2023-02-15T00:50:57;99738.27;;;5.65;65.76
60246;BME280;46107;53.356;-1.524;2023-02-15T00:53:25;99734.96;;;6.38;64.91
60246;BME280;46107;53.356;-1.524;2023-02-15T00:55:53;99732.86;;;5.93;64.17
60246;BME280;46107;53.356;-1.524;2023-02-15T00:58:21;99732.30;;;6.06;64.20
60246;BME280;46107;53.356;-1.524;2023-02-15T01:00:50;99723.97;;;6.31;62.61
60246;BME280;46107;53.356;-1.524;2023-02-15T01:03:20;99722.55;;;5.14;66.14
60246;BME280;46107;53.356;-1.524;2023-02-15T01:05:49;99716.99;;;5.54;64.52
60246;BME280;46107;53.356;-1.524;2023-02-15T01:08:17;99718.87;;;5.05;65.45
60246;BME280;46107;53.356;-1.524;2023-02-15T01:10:45;99710.33;;;6.09;62.34
60246;BME280;46107;53.356;-1.524;2023-02-15T01:13:12;99705.42;;;6.39;62.18
60246;BME280;46107;53.356;-1.524;2023-02-15T01:15:40;99708.46;;;4.93;64.97
60246;BME280;46107;53.356;-1.524;2023-02-15T01:18:09;99701.23;;;5.37;64.77
60246;BME280;46107;53.356;-1.524;2023-02-15T01:20:38;99699.12;;;5.69;63.90
60246;BME280;46107;53.356;-1.524;2023-02-15T01:23:07;99696.69;;;5.35;64.65
60246;BME280;46107;53.356;-1.524;2023-02-15T01:25:35;99691.72;;;5.75;63.91
60246;BME280;46107;53.356;-1.524;2023-02-15T01:28:03;99689.92;;;5.82;63.43
60246;BME280;46107;53.356;-1.524;2023-02-15T01:30:32;99688.82;;;6.05;63.00
60246;BME280;46107;53.356;-1.524;2023-02-15T01:32:59;99688.46;;;5.56;65.50
60246;BME280;46107;53.356;-1.524;2023-02-15T01:35:27;99683.94;;;5.76;65.15
60246;BME280;46107;53.356;-1.524;2023-02-15T01:37:55;99676.41;;;6.26;62.33
60246;BME280;46107;53.356;-1.524;2023-02-15T01:40:24;99674.98;;;6.00;63.43
60246;BME280;46107;53.356;-1.524;2023-02-15T01:42:52;99672.39;;;5.43;65.37
60246;BME280;46107;53.356;-1.524;2023-02-15T01:45:22;99669.91;;;6.06;62.77
60246;BME280;46107;53.356;-1.524;2023-02-15T01:47:54;99664.95;;;6.31;63.19
60246;BME280;46107;53.356;-1.524;2023-02-15T01:50:28;99664.09;;;6.20;62.94
60246;BME280;46107;53.356;-1.524;2023-02-15T01:53:00;99656.76;;;6.02;63.16
60246;BME280;46107;53.356;-1.524;2023-02-15T01:55:33;99654.11;;;5.23;65.32
60246;BME280;46107;53.356;-1.524;2023-02-15T01:58:01;99656.74;;;4.81;67.69
60246;BME280;46107;53.356;-1.524;2023-02-15T02:00:29;99650.27;;;5.71;64.55
60246;BME280;46107;53.356;-1.524;2023-02-15T02:02:57;99648.61;;;6.18;61.80
60246;BME280;46107;53.356;-1.524;2023-02-15T02:05:26;99647.11;;;5.65;63.03
60246;BME280;46107;53.356;-1.524;2023-02-15T02:07:57;99647.36;;;6.29;61.70
60246;BME280;46107;53.356;-1.524;2023-02-15T02:10:26;99642.12;;;6.07;61.49
60246;BME280;46107;53.356;-1.524;2023-02-15T02:12:56;99633.27;;;5.10;62.83
60246;BME280;46107;53.356;-1.524;2023-02-15T02:15:31;99630.20;;;5.20;62.98
60246;BME280;46107;53.356;-1.524;2023-02-15T02:18:10;99623.40;;;4.83;62.67
60246;BME280;46107;53.356;-1.524;2023-02-15T02:20:55;99615.93;;;5.69;60.04
60246;BME280;46107;53.356;-1.524;2023-02-15T02:23:35;99612.35;;;6.34;59.75
60246;BME280;46107;53.356;-1.524;2023-02-15T02:26:40;99603.45;;;5.25;62.37
60246;BME280;46107;53.356;-1.524;2023-02-15T02:29:38;99598.76;;;5.69;61.30
60246;BME280;46107;53.356;-1.524;2023-02-15T02:34:26;99585.88;;;5.44;61.32
60246;BME280;46107;53.356;-1.524;2023-02-15T02:37:00;99580.59;;;5.41;60.35
60246;BME280;46107;53.356;-1.524;2023-02-15T02:39:36;99578.11;;;5.51;60.53
60246;BME280;46107;53.356;-1.524;2023-02-15T02:42:12;99571.26;;;6.08;58.72
60246;BME280;46107;53.356;-1.524;2023-02-15T02:44:43;99568.05;;;6.37;57.06
60246;BME280;46107;53.356;-1.524;2023-02-15T02:47:17;99557.76;;;5.59;60.78
60246;BME280;46107;53.356;-1.524;2023-02-15T02:49:46;99555.36;;;4.88;62.26
60246;BME280;46107;53.356;-1.524;2023-02-15T02:52:48;99552.61;;;5.88;60.64
60246;BME280;46107;53.356;-1.524;2023-02-15T02:55:19;99552.22;;;4.95;63.65
60246;BME280;46107;53.356;-1.524;2023-02-15T02:57:55;99548.81;;;5.30;63.07
60246;BME280;46107;53.356;-1.524;2023-02-15T03:00:27;99550.93;;;4.81;63.72
60246;BME280;46107;53.356;-1.524;2023-02-15T03:03:00;99543.88;;;5.14;63.18
60246;BME280;46107;53.356;-1.524;2023-02-15T03:05:30;99538.39;;;5.35;61.92
60246;BME280;46107;53.356;-1.524;2023-02-15T03:08:00;99536.89;;;5.22;63.29
60246;BME280;46107;53.356;-1.524;2023-02-15T03:10:30;99533.38;;;5.21;62.92
60246;BME280;46107;53.356;-1.524;2023-02-15T03:12:57;99529.78;;;5.38;62.63
60246;BME280;46107;53.356;-1.524;2023-02-15T03:15:29;99526.89;;;4.37;65.26
60246;BME280;46107;53.356;-1.524;2023-02-15T03:18:01;99526.08;;;4.91;64.39
60246;BME280;46107;53.356;-1.524;2023-02-15T03:20:33;99522.07;;;5.11;64.28
60246;BME280;46107;53.356;-1.524;2023-02-15T03:23:04;99514.89;;;5.58;62.22
60246;BME280;46107;53.356;-1.524;2023-02-15T03:25:36;99511.08;;;5.63;61.89
60246;BME280;46107;53.356;-1.524;2023-02-15T03:28:07;99507.57;;;6.04;60.57
60246;BME280;46107;53.356;-1.524;2023-02-15T03:30:38;99501.27;;;5.25;61.56
60246;BME280;46107;53.356;-1.524;2023-02-15T03:33:07;99496.73;;;5.12;61.58
60246;BME280;46107;53.356;-1.524;2023-02-15T03:35:41;99488.94;;;5.80;59.99
60246;BME280;46107;53.356;-1.524;2023-02-15T03:38:12;99487.69;;;5.00;61.53
60246;BME280;46107;53.356;-1.524;2023-02-15T03:40:45;99484.68;;;5.44;61.11
60246;BME280;46107;53.356;-1.524;2023-02-15T03:43:18;99482.91;;;5.40;62.05
60246;BME280;46107;53.356;-1.524;2023-02-15T03:45:51;99484.25;;;4.44;64.73
60246;BME280;46107;53.356;-1.524;2023-02-15T03:48:24;99480.44;;;5.04;62.36
60246;BME280;46107;53.356;-1.524;2023-02-15T03:50:55;99476.96;;;4.95;63.17
60246;BME280;46107;53.356;-1.524;2023-02-15T03:53:25;99474.03;;;5.68;61.66
60246;BME280;46107;53.356;-1.524;2023-02-15T03:55:55;99463.98;;;5.55;61.75
60246;BME280;46107;53.356;-1.524;2023-02-15T03:58:22;99461.93;;;5.75;60.93
60246;BME280;46107;53.356;-1.524;2023-02-15T04:00:54;99457.91;;;4.55;65.20
60246;BME280;46107;53.356;-1.524;2023-02-15T04:03:31;99456.94;;;4.63;64.88
60246;BME280;46107;53.356;-1.524;2023-02-15T04:06:05;99454.01;;;4.55;65.79
60246;BME280;46107;53.356;-1.524;2023-02-15T04:08:32;99450.61;;;5.18;64.51
60246;BME280;46107;53.356;-1.524;2023-02-15T04:11:00;99451.53;;;4.65;65.10
60246;BME280;46107;53.356;-1.524;2023-02-15T04:13:31;99452.13;;;5.49;62.10
60246;BME280;46107;53.356;-1.524;2023-02-15T04:15:59;99450.39;;;4.52;63.89
60246;BME280;46107;53.356;-1.524;2023-02-15T04:18:26;99440.17;;;4.91;63.68
60246;BME280;46107;53.356;-1.524;2023-02-15T04:20:54;99430.81;;;5.13;62.94
60246;BME280;46107;53.356;-1.524;2023-02-15T04:23:21;99424.86;;;5.25;61.06
60246;BME280;46107;53.356;-1.524;2023-02-15T04:25:49;99418.75;;;5.08;62.03
60246;BME280;46107;53.356;-1.524;2023-02-15T04:28:16;99416.83;;;5.34;61.45
60246;BME280;46107;53.356;-1.524;2023-02-15T04:30:44;99415.80;;;4.98;62.26
60246;BME280;46107;53.356;-1.524;2023-02-15T04:33:14;99418.03;;;4.63;63.04
60246;BME280;46107;53.356;-1.524;2023-02-15T04:35:43;99416.09;;;5.12;61.14
60246;BME280;46107;53.356;-1.524;2023-02-15T04:38:10;99415.64;;;4.79;62.15
60246;BME280;46107;53.356;-1.524;2023-02-15T04:40:37;99415.40;;;5.37;62.08
60246;BME280;46107;53.356;-1.524;2023-02-15T04:43:06;99415.42;;;3.98;63.55
60246;BME280;46107;53.356;-1.524;2023-02-15T04:45:34;99410.31;;;3.79;64.30
60246;BME280;46107;53.356;-1.524;2023-02-15T04:48:01;99408.78;;;5.21;61.80
60246;BME280;46107;53.356;-1.524;2023-02-15T04:50:30;99405.70;;;3.63;66.77
60246;BME280;46107;53.356;-1.524;2023-02-15T04:52:57;99405.21;;;4.32;65.15
60246;BME280;46107;53.356;-1.524;2023-02-15T04:55:25;99405.27;;;3.26;68.00
60246;BME280;46107;53.356;-1.524;2023-02-15T04:57:53;99395.00;;;4.29;66.63
60246;BME280;46107;53.356;-1.524;2023-02-15T05:00:20;99392.49;;;4.87;64.72
60246;BME280;46107;53.356;-1.524;2023-02-15T05:02:48;99390.63;;;4.79;64.24
60246;BME280;46107;53.356;-1.524;2023-02-15T05:05:16;99386.98;;;3.93;67.23
60246;BME280;46107;53.356;-1.524;2023-02-15T05:07:44;99389.58;;;4.34;64.57
60246;BME280;46107;53.356;-1.524;2023-02-15T05:10:11;99385.99;;;4.91;64.68
60246;BME280;46107;53.356;-1.524;2023-02-15T05:12:39;99385.61;;;4.18;67.00
60246;BME280;46107;53.356;-1.524;2023-02-15T05:15:07;99386.51;;;4.15;65.80
60246;BME280;46107;53.356;-1.524;2023-02-15T05:17:35;99380.95;;;4.22;66.14
60246;BME280;46107;53.356;-1.524;2023-02-15T05:20:04;99383.47;;;4.28;66.02
60246;BME280;46107;53.356;-1.524;2023-02-15T05:22:31;99382.57;;;4.43;65.59
60246;BME280;46107;53.356;-1.524;2023-02-15T05:24:59;99376.10;;;4.36;65.32
60246;BME280;46107;53.356;-1.524;2023-02-15T05:27:27;99374.54;;;4.27;65.75
60246;BME280;46107;53.356;-1.524;2023-02-15T05:29:55;99383.35;;;4.04;65.82
60246;BME280;46107;53.356;-1.524;2023-02-15T05:32:22;99375.95;;;4.58;64.35
60246;BME280;46107;53.356;-1.524;2023-02-15T05:34:49;99364.06;;;4.65;63.83
60246;BME280;46107;53.356;-1.524;2023-02-15T05:37:17;99356.60;;;3.89;65.96
60246;BME280;46107;53.356;-1.524;2023-02-15T05:39:45;99355.43;;;4.44;65.32
60246;BME280;46107;53.356;-1.524;2023-02-15T05:42:13;99358.15;;;3.79;67.32
60246;BME280;46107;53.356;-1.524;2023-02-15T05:44:41;99363.93;;;4.03;68.66
60246;BME280;46107;53.356;-1.524;2023-02-15T05:47:09;99367.48;;;3.12;70.01
60246;BME280;46107;53.356;-1.524;2023-02-15T05:49:37;99356.70;;;2.82;72.16
60246;BME280;46107;53.356;-1.524;2023-02-15T05:52:05;99358.09;;;3.28;72.07
60246;BME280;46107;53.356;-1.524;2023-02-15T05:54:32;99347.19;;;2.93;74.14
60246;BME280;46107;53.356;-1.524;2023-02-15T05:57:00;99342.91;;;3.23;72.12
60246;BME280;46107;53.356;-1.524;2023-02-15T05:59:28;99334.45;;;3.52;72.75
60246;BME280;46107;53.356;-1.524;2023-02-15T06:01:55;99334.17;;;2.88;74.07
60246;BME280;46107;53.356;-1.524;2023-02-15T06:04:23;99327.13;;;3.30;73.43
60246;BME280;46107;53.356;-1.524;2023-02-15T06:06:51;99321.69;;;3.21;73.47
60246;BME280;46107;53.356;-1.524;2023-02-15T06:09:19;99326.94;;;3.25;73.24
60246;BME280;46107;53.356;-1.524;2023-02-15T06:11:46;99328.33;;;2.35;75.22
60246;BME280;46107;53.356;-1.524;2023-02-15T06:14:14;99325.68;;;3.52;72.10
60246;BME280;46107;53.356;-1.524;2023-02-15T06:16:42;99328.00;;;3.30;73.78
60246;BME280;46107;53.356;-1.524;2023-02-15T06:19:10;99318.00;;;2.58;76.82
60246;BME280;46107;53.356;-1.524;2023-02-15T06:21:38;99324.77;;;3.29;73.34
60246;BME280;46107;53.356;-1.524;2023-02-15T06:24:07;99328.14;;;2.79;73.78
60246;BME280;46107;53.356;-1.524;2023-02-15T06:26:35;99323.29;;;3.28;71.65
60246;BME280;46107;53.356;-1.524;2023-02-15T06:29:03;99327.45;;;3.52;71.69
60246;BME280;46107;53.356;-1.524;2023-02-15T06:31:30;99335.56;;;3.44;72.05
60246;BME280;46107;53.356;-1.524;2023-02-15T06:33:58;99331.59;;;3.68;70.50
60246;BME280;46107;53.356;-1.524;2023-02-15T06:36:27;99332.43;;;2.77;72.12
60246;BME280;46107;53.356;-1.524;2023-02-15T06:38:54;99337.53;;;3.83;71.23
60246;BME280;46107;53.356;-1.524;2023-02-15T06:41:23;99328.08;;;4.03;69.11
60246;BME280;46107;53.356;-1.524;2023-02-15T06:43:52;99332.93;;;3.14;71.27
60246;BME280;46107;53.356;-1.524;2023-02-15T06:46:19;99329.10;;;3.23;70.48
60246;BME280;46107;53.356;-1.524;2023-02-15T06:48:46;99324.20;;;3.49;71.17
60246;BME280;46107;53.356;-1.524;2023-02-15T06:51:14;99330.01;;;2.97;71.95
60246;BME280;46107;53.356;-1.524;2023-02-15T06:53:46;99319.34;;;3.78;68.92
60246;BME280;46107;53.356;-1.524;2023-02-15T06:56:14;99316.52;;;4.09;67.81
60246;BME280;46107;53.356;-1.524;2023-02-15T06:58:42;99311.33;;;3.09;69.92
60246;BME280;46107;53.356;-1.524;2023-02-15T07:01:11;99311.45;;;3.52;69.26
60246;BME280;46107;53.356;-1.524;2023-02-15T07:03:39;99311.34;;;3.62;69.22
60246;BME280;46107;53.356;-1.524;2023-02-15T07:06:07;99310.93;;;2.94;72.22
60246;BME280;46107;53.356;-1.524;2023-02-15T07:08:36;99304.62;;;3.21;74.21
60246;BME280;46107;53.356;-1.524;2023-02-15T07:11:05;99302.84;;;3.84;70.59
60246;BME280;46107;53.356;-1.524;2023-02-15T07:13:33;99304.67;;;4.05;69.03
60246;BME280;46107;53.356;-1.524;2023-02-15T07:16:01;99309.00;;;4.64;65.87
60246;BME280;46107;53.356;-1.524;2023-02-15T07:18:28;99311.03;;;4.90;63.28
60246;BME280;46107;53.356;-1.524;2023-02-15T07:20:55;99306.93;;;3.65;66.96
60246;BME280;46107;53.356;-1.524;2023-02-15T07:23:23;99312.58;;;3.83;66.44
60246;BME280;46107;53.356;-1.524;2023-02-15T07:25:57;99315.92;;;1.54;76.37
60246;BME280;46107;53.356;-1.524;2023-02-15T07:28:24;99316.64;;;2.52;75.00
60246;BME280;46107;53.356;-1.524;2023-02-15T07:30:52;99311.30;;;1.84;78.20
60246;BME280;46107;53.356;-1.524;2023-02-15T07:33:20;99312.11;;;1.41;83.88
60246;BME280;46107;53.356;-1.524;2023-02-15T07:35:48;99321.80;;;2.35;80.27
60246;BME280;46107;53.356;-1.524;2023-02-15T07:38:16;99327.63;;;0.41;84.85
60246;BME280;46107;53.356;-1.524;2023-02-15T07:40:43;99319.34;;;1.66;81.58
60246;BME280;46107;53.356;-1.524;2023-02-15T07:43:11;99319.24;;;1.85;82.40
60246;BME280;46107;53.356;-1.524;2023-02-15T07:45:39;99311.06;;;1.84;78.54
60246;BME280;46107;53.356;-1.524;2023-02-15T07:48:07;99302.14;;;2.91;73.73
60246;BME280;46107;53.356;-1.524;2023-02-15T07:50:35;99293.15;;;4.01;71.66
60246;BME280;46107;53.356;-1.524;2023-02-15T07:53:03;99292.86;;;3.73;70.34
60246;BME280;46107;53.356;-1.524;2023-02-15T07:55:30;99287.73;;;3.49;70.95
60246;BME280;46107;53.356;-1.524;2023-02-15T07:57:58;99283.37;;;3.91;70.04
60246;BME280;46107;53.356;-1.524;2023-02-15T08:00:26;99276.88;;;4.25;68.85
60246;BME280;46107;53.356;-1.524;2023-02-15T08:02:55;99278.38;;;4.11;69.28
60246;BME280;46107;53.356;-1.524;2023-02-15T08:05:23;99269.85;;;3.63;72.00
60246;BME280;46107;53.356;-1.524;2023-02-15T08:07:51;99274.74;;;2.93;71.59
60246;BME280;46107;53.356;-1.524;2023-02-15T08:10:19;99267.59;;;2.43;73.87
60246;BME280;46107;53.356;-1.524;2023-02-15T08:12:47;99259.83;;;3.93;71.27
60246;BME280;46107;53.356;-1.524;2023-02-15T08:15:14;99264.79;;;2.88;74.32
60246;BME280;46107;53.356;-1.524;2023-02-15T08:17:42;99260.14;;;4.11;69.96
60246;BME280;46107;53.356;-1.524;2023-02-15T08:20:10;99260.18;;;4.14;68.20
60246;BME280;46107;53.356;-1.524;2023-02-15T08:22:38;99253.47;;;3.85;71.77
60246;BME280;46107;53.356;-1.524;2023-02-15T08:25:06;99245.30;;;4.20;71.49
60246;BME280;46107;53.356;-1.524;2023-02-15T08:27:33;99233.46;;;3.73;74.98
60246;BME280;46107;53.356;-1.524;2023-02-15T08:30:01;99241.00;;;3.98;72.90
60246;BME280;46107;53.356;-1.524;2023-02-15T08:32:28;99246.23;;;3.52;75.38
60246;BME280;46107;53.356;-1.524;2023-02-15T08:34:56;99241.36;;;2.99;77.64
60246;BME280;46107;53.356;-1.524;2023-02-15T08:37:24;99237.15;;;3.06;78.56
60246;BME280;46107;53.356;-1.524;2023-02-15T08:39:51;99236.74;;;3.79;74.99
60246;BME280;46107;53.356;-1.524;2023-02-15T08:42:19;99233.93;;;3.36;78.13
60246;BME280;46107;53.356;-1.524;2023-02-15T08:44:47;99221.33;;;4.69;71.85
60246;BME280;46107;53.356;-1.524;2023-02-15T08:47:15;99224.83;;;5.10;69.30
60246;BME280;46107;53.356;-1.524;2023-02-15T08:49:42;99232.98;;;4.11;75.90
60246;BME280;46107;53.356;-1.524;2023-02-15T08:52:10;99231.70;;;4.90;72.65
60246;BME280;46107;53.356;-1.524;2023-02-15T08:54:38;99226.69;;;4.54;73.74
60246;BME280;46107;53.356;-1.524;2023-02-15T08:57:05;99228.75;;;3.89;75.14
60246;BME280;46107;53.356;-1.524;2023-02-15T08:59:33;99225.07;;;4.71;72.82
60246;BME280;46107;53.356;-1.524;2023-02-15T09:02:01;99223.57;;;5.66;70.64
60246;BME280;46107;53.356;-1.524;2023-02-15T09:04:29;99230.72;;;4.98;69.36
60246;BME280;46107;53.356;-1.524;2023-02-15T09:06:57;99222.36;;;4.96;71.13
60246;BME280;46107;53.356;-1.524;2023-02-15T09:09:24;99215.60;;;5.46;69.76
60246;BME280;46107;53.356;-1.524;2023-02-15T09:11:52;99226.14;;;6.05;66.54
60246;BME280;46107;53.356;-1.524;2023-02-15T09:14:21;99231.48;;;5.39;66.95
60246;BME280;46107;53.356;-1.524;2023-02-15T09:16:48;99225.93;;;5.78;65.74
60246;BME280;46107;53.356;-1.524;2023-02-15T09:19:17;99218.49;;;5.76;66.11
60246;BME280;46107;53.356;-1.524;2023-02-15T09:21:45;99223.75;;;6.21;65.25
60246;BME280;46107;53.356;-1.524;2023-02-15T09:24:15;99237.55;;;5.86;64.22
60246;BME280;46107;53.356;-1.524;2023-02-15T09:26:46;99235.97;;;5.36;68.01
60246;BME280;46107;53.356;-1.524;2023-02-15T09:29:15;99234.03;;;6.25;66.32
60246;BME280;46107;53.356;-1.524;2023-02-15T09:31:45;99225.31;;;5.27;68.89
60246;BME280;46107;53.356;-1.524;2023-02-15T09:34:13;99221.74;;;5.21;69.06
60246;BME280;46107;53.356;-1.524;2023-02-15T09:36:42;99226.68;;;4.98;69.37
60246;BME280;46107;53.356;-1.524;2023-02-15T09:39:12;99230.29;;;5.96;67.87
60246;BME280;46107;53.356;-1.524;2023-02-15T09:41:56;99234.17;;;6.04;65.69
60246;BME280;46107;53.356;-1.524;2023-02-15T09:44:37;99214.54;;;5.21;69.14
60246;BME280;46107;53.356;-1.524;2023-02-15T09:47:24;99213.15;;;5.65;68.05
60246;BME280;46107;53.356;-1.524;2023-02-15T09:50:02;99210.47;;;5.86;67.75
60246;BME280;46107;53.356;-1.524;2023-02-15T09:52:43;99206.13;;;6.53;65.79
60246;BME280;46107;53.356;-1.524;2023-02-15T09:55:26;99210.78;;;6.06;66.20
60246;BME280;46107;53.356;-1.524;2023-02-15T09:58:02;99207.95;;;6.43;64.15
60246;BME280;46107;53.356;-1.524;2023-02-15T10:00:40;99200.01;;;6.20;65.17
60246;BME280;46107;53.356;-1.524;2023-02-15T10:03:23;99195.40;;;6.23;64.00
60246;BME280;46107;53.356;-1.524;2023-02-15T10:06:05;99191.49;;;6.30;64.68
60246;BME280;46107;53.356;-1.524;2023-02-15T10:08:55;99182.30;;;6.11;64.45
60246;BME280;46107;53.356;-1.524;2023-02-15T10:11:34;99175.60;;;6.68;64.38
60246;BME280;46107;53.356;-1.524;2023-02-15T10:14:22;99186.06;;;6.15;63.76
60246;BME280;46107;53.356;-1.524;2023-02-15T10:16:59;99182.97;;;7.97;58.52
60246;BME280;46107;53.356;-1.524;2023-02-15T10:19:38;99182.18;;;6.87;58.98
60246;BME280;46107;53.356;-1.524;2023-02-15T10:22:21;99187.50;;;6.88;60.64
60246;BME280;46107;53.356;-1.524;2023-02-15T10:25:07;99188.44;;;7.00;60.40
60246;BME280;46107;53.356;-1.524;2023-02-15T10:27:45;99184.64;;;7.03;60.37
60246;BME280;46107;53.356;-1.524;2023-02-15T10:30:14;99186.43;;;7.48;57.90
60246;BME280;46107;53.356;-1.524;2023-02-15T10:32:52;99184.20;;;7.40;59.94
60246;BME280;46107;53.356;-1.524;2023-02-15T10:35:30;99182.73;;;6.97;58.67
60246;BME280;46107;53.356;-1.524;2023-02-15T10:38:08;99183.10;;;7.85;56.82
60246;BME280;46107;53.356;-1.524;2023-02-15T10:40:48;99182.14;;;7.98;56.17
60246;BME280;46107;53.356;-1.524;2023-02-15T10:43:30;99183.30;;;8.24;57.91
60246;BME280;46107;53.356;-1.524;2023-02-15T10:46:07;99186.21;;;7.67;57.85
60246;BME280;46107;53.356;-1.524;2023-02-15T10:48:51;99186.87;;;6.74;59.96
60246;BME280;46107;53.356;-1.524;2023-02-15T10:51:29;99179.76;;;7.72;57.92
60246;BME280;46107;53.356;-1.524;2023-02-15T10:54:07;99183.45;;;6.78;59.94
60246;BME280;46107;53.356;-1.524;2023-02-15T10:56:41;99178.94;;;7.40;58.15
60246;BME280;46107;53.356;-1.524;2023-02-15T10:59:25;99176.10;;;7.70;58.26
60246;BME280;46107;53.356;-1.524;2023-02-15T11:02:01;99173.12;;;7.75;58.21
60246;BME280;46107;53.356;-1.524;2023-02-15T11:04:41;99175.91;;;7.85;57.26
60246;BME280;46107;53.356;-1.524;2023-02-15T11:07:16;99176.91;;;7.94;57.10
60246;BME280;46107;53.356;-1.524;2023-02-15T11:09:49;99172.93;;;7.85;57.44
60246;BME280;46107;53.356;-1.524;2023-02-15T11:12:21;99169.74;;;7.79;57.66
60246;BME280;46107;53.356;-1.524;2023-02-15T11:14:56;99179.29;;;7.72;57.35
60246;BME280;46107;53.356;-1.524;2023-02-15T11:17:30;99173.95;;;7.80;58.73
60246;BME280;46107;53.356;-1.524;2023-02-15T11:20:08;99175.39;;;8.17;57.52
60246;BME280;46107;53.356;-1.524;2023-02-15T11:22:42;99178.50;;;8.58;57.25
60246;BME280;46107;53.356;-1.524;2023-02-15T11:25:18;99186.29;;;7.90;58.64
60246;BME280;46107;53.356;-1.524;2023-02-15T11:27:48;99187.22;;;7.48;60.65
60246;BME280;46107;53.356;-1.524;2023-02-15T11:30:20;99189.18;;;7.79;59.92
60246;BME280;46107;53.356;-1.524;2023-02-15T11:32:52;99181.13;;;8.77;58.12
60246;BME280;46107;53.356;-1.524;2023-02-15T11:35:25;99178.31;;;8.40;58.37
60246;BME280;46107;53.356;-1.524;2023-02-15T11:38:00;99175.92;;;8.21;57.90
60246;BME280;46107;53.356;-1.524;2023-02-15T11:40:35;99177.36;;;7.83;59.11
60246;BME280;46107;53.356;-1.524;2023-02-15T11:43:05;99172.51;;;8.40;59.15
60246;BME280;46107;53.356;-1.524;2023-02-15T11:45:34;99173.55;;;8.34;56.51
60246;BME280;46107;53.356;-1.524;2023-02-15T11:48:10;99177.57;;;8.34;59.66
60246;BME280;46107;53.356;-1.524;2023-02-15T11:50:39;99174.81;;;9.09;57.03
60246;BME280;46107;53.356;-1.524;2023-02-15T11:53:13;99178.87;;;8.18;59.85
60246;BME280;46107;53.356;-1.524;2023-02-15T11:55:43;99171.66;;;8.24;59.24
60246;BME280;46107;53.356;-1.524;2023-02-15T11:58:22;99162.84;;;8.46;58.50
60246;BME280;46107;53.356;-1.524;2023-02-15T12:00:54;99165.32;;;8.70;57.56
60246;BME280;46107;53.356;-1.524;2023-02-15T12:03:27;99162.87;;;7.73;60.92
60246;BME280;46107;53.356;-1.524;2023-02-15T12:06:00;99155.83;;;9.17;58.10
60246;BME280;46107;53.356;-1.524;2023-02-15T12:08:34;99151.53;;;9.07;58.30
60246;BME280;46107;53.356;-1.524;2023-02-15T12:11:07;99152.71;;;10.08;56.77
60246;BME280;46107;53.356;-1.524;2023-02-15T12:13:36;99153.12;;;10.04;55.14
60246;BME280;46107;53.356;-1.524;2023-02-15T12:16:06;99161.35;;;9.36;55.72
60246;BME280;46107;53.356;-1.524;2023-02-15T12:18:42;99154.78;;;9.63;56.71
60246;BME280;46107;53.356;-1.524;2023-02-15T12:21:15;99161.08;;;9.82;57.47
60246;BME280;46107;53.356;-1.524;2023-02-15T12:23:53;99150.00;;;9.47;59.05
60246;BME280;46107;53.356;-1.524;2023-02-15T12:26:25;99141.97;;;9.65;58.45
60246;BME280;46107;53.356;-1.524;2023-02-15T12:28:54;99146.64;;;9.75;58.13
60246;BME280;46107;53.356;-1.524;2023-02-15T12:31:26;99140.16;;;10.06;57.47
60246;BME280;46107;53.356;-1.524;2023-02-15T12:33:56;99138.83;;;9.89;57.86
60246;BME280;46107;53.356;-1.524;2023-02-15T12:36:27;99136.48;;;10.18;57.01
60246;BME280;46107;53.356;-1.524;2023-02-15T12:39:16;99138.11;;;10.26;57.72
60246;BME280;46107;53.356;-1.524;2023-02-15T12:41:49;99129.07;;;10.39;57.17
60246;BME280;46107;53.356;-1.524;2023-02-15T12:44:25;99147.24;;;9.55;59.80
60246;BME280;46107;53.356;-1.524;2023-02-15T12:46:57;99148.52;;;9.40;61.82
60246;BME280;46107;53.356;-1.524;2023-02-15T12:49:27;99150.15;;;9.71;61.31
60246;BME280;46107;53.356;-1.524;2023-02-15T12:51:57;99153.84;;;9.56;61.73
60246;BME280;46107;53.356;-1.524;2023-02-15T12:54:36;99154.95;;;8.51;64.42
60246;BME280;46107;53.356;-1.524;2023-02-15T12:57:35;99151.01;;;8.94;64.24
60246;BME280;46107;53.356;-1.524;2023-02-15T13:00:11;99150.45;;;9.25;66.53
60246;BME280;46107;53.356;-1.524;2023-02-15T13:02:54;99155.34;;;8.30;70.12
60246;BME280;46107;53.356;-1.524;2023-02-15T13:05:28;99150.02;;;8.94;71.05
60246;BME280;46107;53.356;-1.524;2023-02-15T13:07:59;99157.38;;;9.93;66.80
60246;BME280;46107;53.356;-1.524;2023-02-15T13:10:30;99161.57;;;8.49;72.67
60246;BME280;46107;53.356;-1.524;2023-02-15T13:12:59;99153.49;;;9.23;71.47
60246;BME280;46107;53.356;-1.524;2023-02-15T13:15:32;99156.59;;;8.20;74.02
60246;BME280;46107;53.356;-1.524;2023-02-15T13:18:03;99156.49;;;8.17;73.95
60246;BME280;46107;53.356;-1.524;2023-02-15T13:20:32;99150.47;;;9.27;72.12
60246;BME280;46107;53.356;-1.524;2023-02-15T13:23:04;99148.92;;;8.74;73.37